createdAt,value
2019-05-22T00:00:01.220Z,25.20
2019-05-22T00:02:40.147Z,26.50
2019-05-22T00:05:15.546Z,23.27
2019-05-22T00:07:47.197Z,25.00
2019-05-22T00:10:19.825Z,26.80
2019-05-22T00:12:50.151Z,24.50
2019-05-22T00:15:21.534Z,26.73
2019-05-22T00:17:53.856Z,25.53
2019-05-22T00:20:25.050Z,27.00
2019-05-22T00:22:55.095Z,25.73
2019-05-22T00:25:33.181Z,27.23
2019-05-22T00:28:02.204Z,28.27
2019-05-22T00:30:36.102Z,26.77
2019-05-22T00:33:07.985Z,28.10
2019-05-22T00:35:38.638Z,29.37
2019-05-22T00:38:09.845Z,27.47
2019-05-22T00:40:45.553Z,28.07
2019-05-22T00:43:17.364Z,27.57
2019-05-22T00:45:50.946Z,28.70
2019-05-22T00:48:25.080Z,43.70
2019-05-22T00:51:16.939Z,30.13
2019-05-22T00:53:58.732Z,27.90
2019-05-22T00:56:39.016Z,33.30
2019-05-22T00:59:17.426Z,36.53
2019-05-22T01:01:50.743Z,29.33
2019-05-22T01:04:23.711Z,30.97
2019-05-22T01:06:55.253Z,31.13
2019-05-22T01:09:31.997Z,34.97
2019-05-22T01:12:03.273Z,33.97
2019-05-22T01:14:44.807Z,30.47
2019-05-22T01:17:15.963Z,32.77
2019-05-22T01:19:47.474Z,34.73
2019-05-22T01:22:17.907Z,32.73
2019-05-22T01:24:51.098Z,32.63
2019-05-22T01:27:22.850Z,36.90
2019-05-22T01:29:53.949Z,33.53
2019-05-22T01:32:29.451Z,36.60
2019-05-22T01:34:59.510Z,33.07
2019-05-22T01:37:31.142Z,33.60
2019-05-22T01:40:12.426Z,35.00
2019-05-22T01:42:45.279Z,37.20
2019-05-22T01:45:18.525Z,33.77
2019-05-22T01:47:54.402Z,35.10
2019-05-22T01:50:51.183Z,37.47
2019-05-22T01:53:24.218Z,36.30
2019-05-22T01:56:00.876Z,37.63
2019-05-22T01:58:31.956Z,36.53
2019-05-22T02:01:03.591Z,35.60
2019-05-22T02:03:36.735Z,37.23
2019-05-22T02:06:07.495Z,40.67
2019-05-22T02:08:44.233Z,36.83
2019-05-22T02:11:18.803Z,34.93
2019-05-22T02:13:59.444Z,38.30
2019-05-22T02:16:32.061Z,40.60
2019-05-22T02:19:05.388Z,38.40
2019-05-22T02:21:35.851Z,38.00
2019-05-22T02:24:06.671Z,39.27
2019-05-22T02:26:37.611Z,39.60
2019-05-22T02:29:09.061Z,36.53
2019-05-22T02:31:40.782Z,36.57
2019-05-22T02:34:10.762Z,38.93
2019-05-22T02:36:41.941Z,36.83
2019-05-22T02:39:24.014Z,34.73
2019-05-22T02:41:58.113Z,37.63
2019-05-22T02:44:29.948Z,37.27
2019-05-22T02:47:16.681Z,37.37
2019-05-22T02:49:32.971Z,34.27
2019-05-22T02:52:03.692Z,37.10
2019-05-22T02:54:34.423Z,40.97
2019-05-22T02:57:04.805Z,36.07
2019-05-22T02:59:35.012Z,33.83
2019-05-22T03:02:06.932Z,36.87
2019-05-22T03:05:11.272Z,35.20
2019-05-22T03:07:42.100Z,35.47
2019-05-22T03:10:18.894Z,34.70
2019-05-22T03:12:52.278Z,33.63
2019-05-22T03:15:26.115Z,35.87
2019-05-22T03:18:08.546Z,34.33
2019-05-22T03:20:40.412Z,36.00
2019-05-22T03:23:35.763Z,34.00
2019-05-22T03:26:08.440Z,35.63
2019-05-22T03:28:38.842Z,31.97
2019-05-22T03:31:10.350Z,35.70
2019-05-22T03:33:41.320Z,31.93
2019-05-22T03:36:18.329Z,30.70
2019-05-22T03:38:48.923Z,30.63
2019-05-22T03:41:19.324Z,31.93
2019-05-22T03:43:50.999Z,32.80
2019-05-22T03:46:39.185Z,29.90
2019-05-22T03:49:28.375Z,28.03
2019-05-22T03:51:45.682Z,31.50
2019-05-22T03:54:16.396Z,28.37
2019-05-22T03:56:47.986Z,28.03
2019-05-22T03:59:17.499Z,28.10
2019-05-22T04:01:47.173Z,26.23
2019-05-22T04:04:34.330Z,25.77
2019-05-22T04:07:03.831Z,24.40
2019-05-22T04:09:33.441Z,27.90
2019-05-22T04:12:03.554Z,24.83
2019-05-22T04:14:38.025Z,24.30
2019-05-22T04:17:10.100Z,24.80
2019-05-22T04:19:49.387Z,24.80
2019-05-22T04:22:13.445Z,21.57
2019-05-22T04:24:44.379Z,20.13
2019-05-22T04:27:14.309Z,21.27
2019-05-22T04:29:44.632Z,21.30
2019-05-22T04:32:17.934Z,20.93
2019-05-22T04:34:48.623Z,21.47
2019-05-22T04:37:20.114Z,20.07
2019-05-22T04:39:52.806Z,21.93
2019-05-22T04:42:27.400Z,22.83
2019-05-22T04:45:12.329Z,21.90
2019-05-22T04:47:46.427Z,20.13
2019-05-22T04:50:17.256Z,18.63
2019-05-22T04:52:48.553Z,20.27
2019-05-22T04:55:19.094Z,15.53
2019-05-22T04:57:49.898Z,15.63
2019-05-22T05:00:22.269Z,18.10
2019-05-22T05:02:51.955Z,13.97
2019-05-22T05:05:25.193Z,12.70
2019-05-22T05:07:56.544Z,15.83
2019-05-22T05:10:26.613Z,12.00
2019-05-22T05:12:59.394Z,14.13
2019-05-22T05:15:29.156Z,13.00
2019-05-22T05:17:59.274Z,11.80
2019-05-22T05:20:32.294Z,12.77
2019-05-22T05:23:02.614Z,13.47
2019-05-22T05:25:33.805Z,15.03
2019-05-22T05:28:05.339Z,12.03
2019-05-22T05:30:35.103Z,12.00
2019-05-22T05:33:05.493Z,13.67
2019-05-22T05:35:36.463Z,13.40
2019-05-22T05:38:06.637Z,12.60
2019-05-22T05:40:42.641Z,14.07
2019-05-22T05:43:14.577Z,13.43
2019-05-22T05:45:46.787Z,15.00
2019-05-22T05:48:21.522Z,14.17
2019-05-22T05:51:34.465Z,17.73
2019-05-22T05:54:10.876Z,15.90
2019-05-22T05:56:42.386Z,14.50
2019-05-22T05:59:14.220Z,13.20
2019-05-22T06:01:47.479Z,13.00
2019-05-22T06:04:34.866Z,15.13
2019-05-22T06:07:19.316Z,17.97
2019-05-22T06:09:55.277Z,12.43
2019-05-22T06:12:25.393Z,13.40
2019-05-22T06:14:55.221Z,13.03
2019-05-22T06:18:04.537Z,13.13
2019-05-22T06:20:34.888Z,13.83
2019-05-22T06:23:46.584Z,15.07
2019-05-22T06:26:28.512Z,13.57
2019-05-22T06:28:59.116Z,11.67
2019-05-22T06:31:40.438Z,12.77
2019-05-22T06:34:10.919Z,14.67
2019-05-22T06:36:42.945Z,11.37
2019-05-22T06:39:15.748Z,15.17
2019-05-22T06:41:46.820Z,13.00
2019-05-22T06:44:41.000Z,11.67
2019-05-22T06:47:15.398Z,11.33
2019-05-22T06:49:59.183Z,14.37
2019-05-22T06:52:29.213Z,10.50
2019-05-22T06:54:59.192Z,14.20
2019-05-22T06:57:33.747Z,12.27
2019-05-22T07:00:23.264Z,26.40
2019-05-22T07:02:53.145Z,13.03
2019-05-22T07:05:23.027Z,20.17
2019-05-22T07:07:52.703Z,10.53
2019-05-22T07:10:22.704Z,8.90
2019-05-22T07:12:52.848Z,9.63
2019-05-22T07:15:29.137Z,9.37
2019-05-22T07:17:59.464Z,8.83
2019-05-22T07:20:32.757Z,8.43
2019-05-22T07:23:06.164Z,7.70
2019-05-22T07:25:36.681Z,9.07
2019-05-22T07:28:08.106Z,12.30
2019-05-22T07:30:38.631Z,8.57
2019-05-22T07:33:08.354Z,10.87
2019-05-22T07:35:50.324Z,10.87
2019-05-22T07:38:09.827Z,10.57
2019-05-22T07:40:40.578Z,9.27
2019-05-22T07:43:10.732Z,10.80
2019-05-22T07:45:40.897Z,12.83
2019-05-22T07:48:11.185Z,9.67
2019-05-22T07:50:48.524Z,11.47
2019-05-22T07:53:17.350Z,10.70
2019-05-22T07:55:47.468Z,10.77
2019-05-22T07:58:19.138Z,12.60
2019-05-22T08:01:01.899Z,11.13
2019-05-22T08:03:33.121Z,14.13
2019-05-22T08:06:03.043Z,11.67
2019-05-22T08:08:36.075Z,12.20
2019-05-22T08:11:06.750Z,13.73
2019-05-22T08:13:37.795Z,11.97
2019-05-22T08:16:08.576Z,11.50
2019-05-22T08:18:39.788Z,11.77
2019-05-22T08:21:10.861Z,13.03
2019-05-22T08:23:40.729Z,13.20
2019-05-22T08:26:11.644Z,11.67
2019-05-22T08:28:41.854Z,13.80
2019-05-22T08:31:13.285Z,12.17
2019-05-22T08:33:43.310Z,13.97
2019-05-22T08:36:12.960Z,12.03
2019-05-22T08:38:44.929Z,12.27
2019-05-22T08:41:16.318Z,13.93
2019-05-22T08:44:13.811Z,14.53
2019-05-22T08:46:18.995Z,14.07
2019-05-22T08:48:49.419Z,15.90
2019-05-22T08:51:19.659Z,13.80
2019-05-22T08:53:49.832Z,16.43
2019-05-22T08:56:20.215Z,21.07
2019-05-22T08:58:51.449Z,17.80
2019-05-22T09:01:22.575Z,15.90
2019-05-22T09:03:52.924Z,17.43
2019-05-22T09:06:22.680Z,21.47
2019-05-22T09:08:52.263Z,18.07
2019-05-22T09:11:21.956Z,19.43
2019-05-22T09:13:51.593Z,20.37
2019-05-22T09:16:21.620Z,20.47
2019-05-22T09:18:52.475Z,18.60
2019-05-22T09:21:22.666Z,17.93
2019-05-22T09:23:52.204Z,15.27
2019-05-22T09:26:22.865Z,13.10
2019-05-22T09:28:52.825Z,14.37
2019-05-22T09:31:22.973Z,10.30
2019-05-22T09:33:53.613Z,8.97
2019-05-22T09:36:23.479Z,9.70
2019-05-22T09:38:53.553Z,9.77
2019-05-22T09:41:23.337Z,9.90
2019-05-22T09:43:52.942Z,9.93
2019-05-22T09:46:24.302Z,9.33
2019-05-22T09:48:53.867Z,8.80
2019-05-22T09:51:24.038Z,11.57
2019-05-22T09:53:53.888Z,10.60
2019-05-22T09:56:24.223Z,11.67
2019-05-22T09:58:53.889Z,11.70
2019-05-22T10:01:23.740Z,14.03
2019-05-22T10:03:53.483Z,11.13
2019-05-22T10:06:23.097Z,11.90
2019-05-22T10:08:52.832Z,9.80
2019-05-22T10:11:22.879Z,9.53
2019-05-22T10:13:52.902Z,8.90
2019-05-22T10:16:23.095Z,10.33
2019-05-22T10:18:53.705Z,10.13
2019-05-22T10:21:24.485Z,9.50
2019-05-22T10:23:54.603Z,11.00
2019-05-22T10:26:25.009Z,12.90
2019-05-22T10:28:57.196Z,14.93
2019-05-22T10:31:27.212Z,16.00
2019-05-22T10:33:57.013Z,13.97
2019-05-22T10:36:26.509Z,16.50
2019-05-22T10:38:56.818Z,17.00
2019-05-22T10:41:26.905Z,18.83
2019-05-22T10:43:57.426Z,18.30
2019-05-22T10:46:27.137Z,15.90
2019-05-22T10:48:57.326Z,16.33
2019-05-22T10:51:27.421Z,15.77
2019-05-22T10:53:56.947Z,19.30
2019-05-22T10:56:26.972Z,40.17
2019-05-22T10:58:56.920Z,18.10
2019-05-22T11:01:27.675Z,47.73
2019-05-22T11:03:58.345Z,35.43
2019-05-22T11:06:30.452Z,45.13
2019-05-22T11:09:00.867Z,41.80
2019-05-22T11:11:30.877Z,54.83
2019-05-22T11:14:03.362Z,27.33
2019-05-22T11:16:33.861Z,25.03
2019-05-22T11:19:04.006Z,32.87
2019-05-22T11:21:34.791Z,28.37
2019-05-22T11:24:05.305Z,27.30
2019-05-22T11:26:35.025Z,25.33
2019-05-22T11:29:06.530Z,21.77
2019-05-22T11:31:36.393Z,24.63
2019-05-22T11:34:06.590Z,23.30
2019-05-22T11:36:36.871Z,20.10
2019-05-22T11:39:11.460Z,23.93
2019-05-22T11:41:41.966Z,21.40
2019-05-22T11:44:11.886Z,19.37
2019-05-22T11:46:41.658Z,19.07
2019-05-22T11:49:11.892Z,19.57
2019-05-22T11:51:41.777Z,20.30
2019-05-22T11:54:11.587Z,20.87
2019-05-22T11:56:41.608Z,20.10
2019-05-22T11:59:11.305Z,21.83
2019-05-22T12:01:41.320Z,20.53
2019-05-22T12:04:12.647Z,23.23
2019-05-22T12:06:43.955Z,18.17
2019-05-22T12:09:15.687Z,21.57
2019-05-22T12:11:45.678Z,18.43
2019-05-22T12:14:16.670Z,17.83
2019-05-22T12:16:47.875Z,20.57
2019-05-22T12:19:17.631Z,31.83
2019-05-22T12:21:47.410Z,24.13
2019-05-22T12:24:27.310Z,21.13
2019-05-22T12:26:49.215Z,19.37
2019-05-22T12:29:19.162Z,18.57
2019-05-22T12:31:49.321Z,17.50
2019-05-22T12:34:19.814Z,20.00
2019-05-22T12:36:51.495Z,17.13
2019-05-22T12:39:23.460Z,18.20
2019-05-22T12:41:54.262Z,18.60
2019-05-22T12:44:24.599Z,14.20
2019-05-22T12:46:54.768Z,14.33
2019-05-22T12:49:27.280Z,16.47
2019-05-22T12:51:57.366Z,16.80
2019-05-22T12:54:43.416Z,16.00
2019-05-22T12:56:59.043Z,15.97
2019-05-22T12:59:29.237Z,19.63
2019-05-22T13:02:01.189Z,20.43
2019-05-22T13:04:31.915Z,18.13
2019-05-22T13:07:02.727Z,18.93
2019-05-22T13:09:32.989Z,18.07
2019-05-22T13:12:04.092Z,17.13
2019-05-22T13:14:33.900Z,19.10
2019-05-22T13:17:04.003Z,12.93
2019-05-22T13:19:36.399Z,15.50
2019-05-22T13:22:09.569Z,13.40
2019-05-22T13:24:41.019Z,15.77
2019-05-22T13:27:13.942Z,34.80
2019-05-22T13:29:44.405Z,13.97
2019-05-22T13:32:16.080Z,11.20
2019-05-22T13:34:46.880Z,10.07
2019-05-22T13:37:17.754Z,11.00
2019-05-22T13:39:47.250Z,14.00
2019-05-22T13:42:17.554Z,13.27
2019-05-22T13:44:47.634Z,10.43
2019-05-22T13:47:17.104Z,10.53
2019-05-22T13:49:46.842Z,10.00
2019-05-22T13:52:16.482Z,9.97
2019-05-22T13:54:46.474Z,8.47
2019-05-22T13:57:16.417Z,7.70
2019-05-22T13:59:46.397Z,11.27
2019-05-22T14:02:16.069Z,8.27
2019-05-22T14:04:46.384Z,9.83
2019-05-22T14:07:16.399Z,9.37
2019-05-22T14:09:47.050Z,9.00
2019-05-22T14:12:18.477Z,12.03
2019-05-22T14:14:48.514Z,10.53
2019-05-22T14:17:18.290Z,15.27
2019-05-22T14:19:50.942Z,14.87
2019-05-22T14:22:25.829Z,14.33
2019-05-22T14:24:56.065Z,11.27
2019-05-22T14:27:26.363Z,15.60
2019-05-22T14:29:56.610Z,12.13
2019-05-22T14:32:29.707Z,8.97
2019-05-22T14:35:03.405Z,14.03
2019-05-22T14:37:33.942Z,10.23
2019-05-22T14:40:04.973Z,14.43
2019-05-22T14:42:35.770Z,12.73
2019-05-22T14:45:06.377Z,12.70
2019-05-22T14:47:36.370Z,10.50
2019-05-22T14:50:08.018Z,13.87
2019-05-22T14:52:38.119Z,11.93
2019-05-22T14:55:08.075Z,13.00
2019-05-22T14:57:40.656Z,8.53
2019-05-22T15:00:13.194Z,9.63
2019-05-22T15:02:42.985Z,9.93
2019-05-22T15:05:14.109Z,9.10
2019-05-22T15:07:45.095Z,6.53
2019-05-22T15:10:17.067Z,7.33
2019-05-22T15:12:47.665Z,5.83
2019-05-22T15:15:18.986Z,7.50
2019-05-22T15:17:49.570Z,7.63
2019-05-22T15:20:23.676Z,6.93
2019-05-22T15:22:56.259Z,10.60
2019-05-22T15:25:25.226Z,6.93
2019-05-22T15:27:55.327Z,5.17
2019-05-22T15:30:25.507Z,7.40
2019-05-22T15:32:55.565Z,8.73
2019-05-22T15:35:25.820Z,7.97
2019-05-22T15:37:55.870Z,9.97
2019-05-22T15:40:25.717Z,11.70
2019-05-22T15:42:55.374Z,9.83
2019-05-22T15:45:27.521Z,13.70
2019-05-22T15:48:00.867Z,13.70
2019-05-22T15:50:34.042Z,13.03
2019-05-22T15:53:11.950Z,12.73
2019-05-22T15:55:41.480Z,12.80
2019-05-22T15:58:13.909Z,18.93
2019-05-22T16:00:48.218Z,16.70
2019-05-22T16:03:22.971Z,15.07
2019-05-22T16:05:55.259Z,21.90
2019-05-22T16:08:25.450Z,15.90
2019-05-22T16:10:59.613Z,16.87
2019-05-22T16:13:30.964Z,17.30
2019-05-22T16:16:06.569Z,17.00
2019-05-22T16:18:37.512Z,18.00
2019-05-22T16:21:10.397Z,18.97
2019-05-22T16:23:42.010Z,16.80
2019-05-22T16:26:13.808Z,16.07
2019-05-22T16:28:46.154Z,15.63
2019-05-22T16:31:18.216Z,15.27
2019-05-22T16:33:49.498Z,20.03
2019-05-22T16:36:23.960Z,17.50
2019-05-22T16:38:55.398Z,25.20
2019-05-22T16:41:25.923Z,17.13
2019-05-22T16:43:56.761Z,21.40
2019-05-22T16:46:27.283Z,23.07
2019-05-22T16:48:57.700Z,26.90
2019-05-22T16:51:30.236Z,26.10
2019-05-22T16:54:07.340Z,23.47
2019-05-22T16:56:38.330Z,18.27
2019-05-22T16:59:11.189Z,19.93
2019-05-22T17:01:57.602Z,26.67
2019-05-22T17:04:13.588Z,18.67
2019-05-22T17:06:45.558Z,14.33
2019-05-22T17:09:16.673Z,23.33
2019-05-22T17:11:47.366Z,20.00
2019-05-22T17:14:19.014Z,17.73
2019-05-22T17:16:50.068Z,18.37
2019-05-22T17:19:27.231Z,15.77
2019-05-22T17:21:53.690Z,13.73
2019-05-22T17:24:24.612Z,17.57
2019-05-22T17:26:55.150Z,18.87
2019-05-22T17:29:26.516Z,19.83
2019-05-22T17:31:56.874Z,22.70
2019-05-22T17:34:35.800Z,19.47
2019-05-22T17:37:12.622Z,15.87
2019-05-22T17:39:46.717Z,18.10
2019-05-22T17:42:19.437Z,21.90
2019-05-22T17:44:53.029Z,18.97
2019-05-22T17:47:26.497Z,18.60
2019-05-22T17:49:56.975Z,20.90
2019-05-22T17:52:29.674Z,20.67
2019-05-22T17:55:01.010Z,16.90
2019-05-22T17:57:32.453Z,18.70
2019-05-22T18:00:03.943Z,22.30
2019-05-22T18:02:36.510Z,15.97
2019-05-22T18:05:09.842Z,16.77
2019-05-22T18:07:40.608Z,12.73
2019-05-22T18:10:11.703Z,18.13
2019-05-22T18:12:42.210Z,15.17
2019-05-22T18:15:14.717Z,13.77
2019-05-22T18:17:45.233Z,17.40
2019-05-22T18:20:15.965Z,15.87
2019-05-22T18:22:46.082Z,12.80
2019-05-22T18:25:16.225Z,14.73
2019-05-22T18:27:46.103Z,17.60
2019-05-22T18:30:17.623Z,15.93
2019-05-22T18:32:47.159Z,14.57
2019-05-22T18:35:17.037Z,10.33
2019-05-22T18:37:46.854Z,13.67
2019-05-22T18:40:19.032Z,12.53
2019-05-22T18:42:49.624Z,14.33
2019-05-22T18:45:21.476Z,18.03
2019-05-22T18:47:51.537Z,12.53
2019-05-22T18:50:21.709Z,14.30
2019-05-22T18:52:51.910Z,14.00
2019-05-22T18:55:21.572Z,13.27
2019-05-22T18:57:51.311Z,9.33
2019-05-22T19:00:24.796Z,9.60
2019-05-22T19:02:54.714Z,15.40
2019-05-22T19:05:27.212Z,17.80
2019-05-22T19:07:57.302Z,11.70
2019-05-22T19:10:27.087Z,9.63
2019-05-22T19:12:59.420Z,12.03
2019-05-22T19:15:29.549Z,15.70
2019-05-22T19:17:59.728Z,11.17
2019-05-22T19:20:31.457Z,12.27
2019-05-22T19:23:02.075Z,16.20
2019-05-22T19:25:33.444Z,12.00
2019-05-22T19:28:03.384Z,14.83
2019-05-22T19:30:33.500Z,12.70
2019-05-22T19:33:03.127Z,16.40
2019-05-22T19:35:33.557Z,13.63
2019-05-22T19:38:04.698Z,9.93
2019-05-22T19:40:35.041Z,9.30
2019-05-22T19:43:05.578Z,14.23
2019-05-22T19:45:36.144Z,12.20
2019-05-22T19:48:07.565Z,13.10
2019-05-22T19:50:38.056Z,11.80
2019-05-22T19:53:18.669Z,15.30
2019-05-22T19:55:42.145Z,11.83
2019-05-22T19:58:12.484Z,16.07
2019-05-22T20:00:42.219Z,17.77
2019-05-22T20:03:12.135Z,10.17
2019-05-22T20:05:42.187Z,13.47
2019-05-22T20:08:12.400Z,15.60
2019-05-22T20:10:43.407Z,10.83
2019-05-22T20:13:13.227Z,14.23
2019-05-22T20:15:44.247Z,13.23
2019-05-22T20:18:14.245Z,13.77
2019-05-22T20:20:44.447Z,11.47
2019-05-22T20:23:15.583Z,11.37
2019-05-22T20:25:45.373Z,9.50
2019-05-22T20:28:16.304Z,9.30
2019-05-22T20:30:46.653Z,9.27
2019-05-22T20:33:16.506Z,9.30
2019-05-22T20:35:46.667Z,8.83
2019-05-22T20:38:17.155Z,10.13
2019-05-22T20:40:47.301Z,11.47
2019-05-22T20:43:17.043Z,8.87
2019-05-22T20:45:46.773Z,11.50
2019-05-22T20:48:26.058Z,10.47
2019-05-22T20:50:57.532Z,12.17
2019-05-22T20:53:27.407Z,11.57
2019-05-22T20:55:58.474Z,9.37
2019-05-22T20:58:30.725Z,10.40
2019-05-22T21:01:00.724Z,10.20
2019-05-22T21:03:33.185Z,13.57
2019-05-22T21:06:07.072Z,13.20
2019-05-22T21:08:38.054Z,8.93
2019-05-22T21:11:09.777Z,13.47
2019-05-22T21:13:40.140Z,8.73
2019-05-22T21:16:11.053Z,11.00
2019-05-22T21:19:00.975Z,7.57
2019-05-22T21:21:31.184Z,10.50
2019-05-22T21:24:10.031Z,8.03
2019-05-22T21:26:34.333Z,9.43
2019-05-22T21:29:04.457Z,12.27
2019-05-22T21:31:35.241Z,8.47
2019-05-22T21:34:05.673Z,8.63
2019-05-22T21:36:36.141Z,9.07
2019-05-22T21:39:09.928Z,10.80
2019-05-22T21:41:40.272Z,11.77
2019-05-22T21:44:10.416Z,8.27
2019-05-22T21:46:41.950Z,14.73
2019-05-22T21:49:12.380Z,9.43
2019-05-22T21:51:42.126Z,8.13
2019-05-22T21:54:12.322Z,8.10
2019-05-22T21:56:43.430Z,9.70
2019-05-22T21:59:14.223Z,8.90
2019-05-22T22:02:10.160Z,10.10
2019-05-22T22:04:39.938Z,8.93
2019-05-22T22:07:10.777Z,11.77
2019-05-22T22:09:42.629Z,12.17
2019-05-22T22:12:15.149Z,10.57
2019-05-22T22:14:45.564Z,10.50
2019-05-22T22:17:16.708Z,14.73
2019-05-22T22:19:47.074Z,8.90
2019-05-22T22:22:23.040Z,7.83
2019-05-22T22:24:53.269Z,13.70
2019-05-22T22:27:22.893Z,7.53
2019-05-22T22:29:53.947Z,7.27
2019-05-22T22:32:25.627Z,9.23
2019-05-22T22:34:55.459Z,10.17
2019-05-22T22:37:26.600Z,6.27
2019-05-22T22:39:59.387Z,6.80
2019-05-22T22:42:31.718Z,10.00
2019-05-22T22:45:05.487Z,6.17
2019-05-22T22:47:37.906Z,7.60
2019-05-22T22:50:10.005Z,11.83
2019-05-22T22:52:39.915Z,9.13
2019-05-22T22:55:13.443Z,10.27
2019-05-22T22:57:42.965Z,11.40
2019-05-22T23:00:17.469Z,13.13
2019-05-22T23:02:49.302Z,10.43
2019-05-22T23:05:20.050Z,9.07
2019-05-22T23:07:49.615Z,8.17
2019-05-22T23:10:21.904Z,13.83
2019-05-22T23:12:54.442Z,9.47
2019-05-22T23:15:26.989Z,7.93
2019-05-22T23:17:56.725Z,12.13
2019-05-22T23:20:24.361Z,9.97
2019-05-22T23:22:52.629Z,8.83
2019-05-22T23:25:23.786Z,10.57
2019-05-22T23:27:53.708Z,7.40
2019-05-22T23:30:23.952Z,12.37
2019-05-22T23:32:54.663Z,7.53
2019-05-22T23:35:24.799Z,10.30
2019-05-22T23:37:54.365Z,8.23
2019-05-22T23:40:29.226Z,9.60
2019-05-22T23:43:01.964Z,8.97
2019-05-22T23:45:32.265Z,10.73
2019-05-22T23:48:14.439Z,12.47
2019-05-22T23:50:45.781Z,9.53
2019-05-22T23:53:18.507Z,8.37
2019-05-22T23:55:48.991Z,9.67
2019-05-22T23:58:20.174Z,7.80
